Akane — H3UD — position and weather

sailwx.info

Track history (hours):
 
Tides and Currents Weather Stations Pressure Air Temp Water Temp Dewpoint Dewpoint Depression Visibility Wind Speed Wind Dir Waves Ship Positions

Akane

Last reported at 2016-May-27 07:24 UTC. Time now 2016-May-29 03:53 UTC.
Position N 34°06' E 135°03'.

Length 180 m; draft 10.6 m.

Type: Tanker. MMSI: 353172000.

Date/timePositionNaut miles runAvg speedWind from/ knotsBaromVisibWave heightAir tempDewpointWater temp
2016-May-27 07:24N 34°06' E 135°03'  
2016-May-24 03:12N 34°07' E 135°08'2 3.2
2016-May-24 02:32N 34°09' E 135°06'0 0.2
2016-May-24 01:26N 34°09' E 135°06'0 0.0
2016-May-23 23:32N 34°09' E 135°06'0 0.1
2016-May-23 22:33N 34°09' E 135°06'6 6.2
2016-May-23 21:33N 34°05' E 135°00'1515.1
2016-May-23 20:33N 33°49' E 134°59'23312.1
2016-May-23 01:18N 34°58' E 139°30'1114.4
2016-May-23 00:33N 35°04' E 139°41'1212.1
2016-May-22 23:32N 35°15' E 139°46'1111.1
2016-May-22 22:34N 35°24' E 139°39'0 0.5
2016-May-22 21:32N 35°25' E 139°39'0 0.0
2016-May-22 20:32N 35°25' E 139°39'0 0.0
2016-May-22 19:32N 35°25' E 139°39'0 0.0
2016-May-22 18:32N 35°25' E 139°39'0 0.0
2016-May-22 17:32N 35°25' E 139°39'0 0.0
2016-May-22 16:32N 35°25' E 139°39'0 0.0
2016-May-22 15:32N 35°25' E 139°39'0 0.0
2016-May-22 14:32N 35°25' E 139°39'0 0.0
2016-May-22 13:32N 35°25' E 139°39'0 0.0
2016-May-22 12:32N 35°25' E 139°39'0 0.0
2016-May-22 11:32N 35°25' E 139°39'0 0.0
2016-May-22 10:32N 35°25' E 139°39'0 0.0
2016-May-22 09:32N 35°25' E 139°39'0 0.0
2016-May-22 08:32N 35°25' E 139°39'0 0.0
2016-May-22 07:32N 35°25' E 139°39'0 0.0
2016-May-22 06:32N 35°25' E 139°39'0 0.0
2016-May-22 05:32N 35°25' E 139°39'0 0.0
2016-May-22 04:32N 35°25' E 139°39'0 0.0
2016-May-22 03:32N 35°25' E 139°39'0 0.0
2016-May-22 02:32N 35°25' E 139°39'2 1.7
2016-May-22 01:33N 35°24' E 139°40'3 2.5
2016-May-22 00:33N 35°25' E 139°43'0 0.0
2016-May-21 23:33N 35°25' E 139°43'0 0.1
2016-May-21 22:33N 35°25' E 139°43'0 0.0
2016-May-21 21:33N 35°25' E 139°43'0 0.0
2016-May-21 20:32N 35°25' E 139°43'0 0.1
2016-May-21 19:33N 35°25' E 139°43'0 0.1
2016-May-21 18:33N 35°25' E 139°43'0 0.0
2016-May-21 17:32N 35°25' E 139°43'0 0.0
2016-May-21 16:33N 35°25' E 139°43'0 0.1
2016-May-21 15:33N 35°25' E 139°43'0 0.1
2016-May-21 14:33N 35°25' E 139°43'0 0.1
2016-May-21 13:33N 35°25' E 139°43'0 0.1
2016-May-21 12:33N 35°25' E 139°43'0 0.0
2016-May-21 11:32N 35°25' E 139°43'0 0.0
2016-May-21 10:32N 35°25' E 139°43'0 0.0
2016-May-21 09:33N 35°25' E 139°43'0 0.1
2016-May-21 08:33N 35°25' E 139°43'0 0.1
2016-May-21 07:33N 35°25' E 139°43'0 0.0
2016-May-21 06:33N 35°25' E 139°43'0 0.0
2016-May-21 05:33N 35°25' E 139°43'0 0.0
2016-May-21 04:33N 35°25' E 139°43'0 0.1
2016-May-21 03:33N 35°25' E 139°43'0 0.1
2016-May-21 02:33N 35°25' E 139°43'0 0.1
2016-May-21 01:33N 35°25' E 139°43'0 0.1
2016-May-21 00:33N 35°25' E 139°43'0 0.0
2016-May-20 23:32N 35°25' E 139°43'0 0.0
2016-May-20 22:33N 35°25' E 139°43'0 0.0
2016-May-20 21:32N 35°25' E 139°43'0 0.1
2016-May-20 20:33N 35°25' E 139°43'0 0.1
2016-May-20 19:33N 35°25' E 139°43'0 0.1
2016-May-20 18:32N 35°25' E 139°43'0 0.0
2016-May-20 17:33N 35°25' E 139°43'0 0.1
2016-May-20 16:33N 35°25' E 139°43'0 0.1
2016-May-20 15:33N 35°25' E 139°43'0 0.1
2016-May-20 14:33N 35°25' E 139°43'0 0.0
2016-May-20 13:33N 35°25' E 139°43'0 0.0
2016-May-20 12:33N 35°25' E 139°43'0 0.0
2016-May-20 11:33N 35°25' E 139°43'0 0.1
2016-May-20 10:33N 35°25' E 139°43'0 0.0
2016-May-20 09:33N 35°25' E 139°43'0 0.0
2016-May-20 08:33N 35°25' E 139°43'0 0.0
2016-May-20 07:33N 35°25' E 139°43'0 0.1
2016-May-20 06:34N 35°25' E 139°43'6 6.4
2016-May-20 05:34N 35°19' E 139°44'1110.8
2016-May-20 04:33N 35°08' E 139°46'1110.9
2016-May-20 03:34N 34°58' E 139°41'1410.7
2016-May-20 02:16N 34°52' E 139°56'1014.1
2016-May-20 01:33N 34°54' E 140°08'1413.5
2016-May-20 00:33N 35°01' E 140°23'1312.4
2016-May-19 23:32N 35°08' E 140°35'1311.9
2016-May-19 22:26N 35°17' E 140°47'1011.4
2016-May-19 21:32N 35°24' E 140°56'1312.8
2016-May-19 20:31N 35°35' E 141°06'1212.9
2016-May-19 19:33N 35°47' E 141°10'1413.7
2016-May-19 18:33N 36°00' E 141°11'1513.6
2016-May-19 17:29N 36°15' E 141°13'1313.6
2016-May-19 16:30N 36°28' E 141°14'1313.4
2016-May-19 15:30N 36°41' E 141°16'1313.8
2016-May-19 14:33N 36°54' E 141°17'2013.9
2016-May-19 13:06N 37°14' E 141°19'  
Track history (hours):
 
Tides and Currents Weather Stations Pressure Air Temp Water Temp Dewpoint Dewpoint Depression Visibility Wind Speed Wind Dir Waves Ship Positions

Akane

Last reported at 2016-May-27 07:24 UTC. Time now 2016-May-29 03:53 UTC.
Position N 34°06' E 135°03'.

Length 180 m; draft 10.6 m.

Type: Tanker. MMSI: 353172000.

Date/timePositionNaut miles runAvg speedWind from/ knotsBaromVisibWave heightAir tempDewpointWater temp
2016-May-27 07:24N 34°06' E 135°03'  
2016-May-24 03:12N 34°07' E 135°08'2 3.2
2016-May-24 02:32N 34°09' E 135°06'0 0.2
2016-May-24 01:26N 34°09' E 135°06'0 0.0
2016-May-23 23:32N 34°09' E 135°06'0 0.1
2016-May-23 22:33N 34°09' E 135°06'6 6.2
2016-May-23 21:33N 34°05' E 135°00'1515.1
2016-May-23 20:33N 33°49' E 134°59'23312.1
2016-May-23 01:18N 34°58' E 139°30'1114.4
2016-May-23 00:33N 35°04' E 139°41'1212.1
2016-May-22 23:32N 35°15' E 139°46'1111.1
2016-May-22 22:34N 35°24' E 139°39'0 0.5
2016-May-22 21:32N 35°25' E 139°39'0 0.0
2016-May-22 20:32N 35°25' E 139°39'0 0.0
2016-May-22 19:32N 35°25' E 139°39'0 0.0
2016-May-22 18:32N 35°25' E 139°39'0 0.0
2016-May-22 17:32N 35°25' E 139°39'0 0.0
2016-May-22 16:32N 35°25' E 139°39'0 0.0
2016-May-22 15:32N 35°25' E 139°39'0 0.0
2016-May-22 14:32N 35°25' E 139°39'0 0.0
2016-May-22 13:32N 35°25' E 139°39'0 0.0
2016-May-22 12:32N 35°25' E 139°39'0 0.0
2016-May-22 11:32N 35°25' E 139°39'0 0.0
2016-May-22 10:32N 35°25' E 139°39'0 0.0
2016-May-22 09:32N 35°25' E 139°39'0 0.0
2016-May-22 08:32N 35°25' E 139°39'0 0.0
2016-May-22 07:32N 35°25' E 139°39'0 0.0
2016-May-22 06:32N 35°25' E 139°39'0 0.0
2016-May-22 05:32N 35°25' E 139°39'0 0.0
2016-May-22 04:32N 35°25' E 139°39'0 0.0
2016-May-22 03:32N 35°25' E 139°39'0 0.0
2016-May-22 02:32N 35°25' E 139°39'2 1.7
2016-May-22 01:33N 35°24' E 139°40'3 2.5
2016-May-22 00:33N 35°25' E 139°43'0 0.0
2016-May-21 23:33N 35°25' E 139°43'0 0.1
2016-May-21 22:33N 35°25' E 139°43'0 0.0
2016-May-21 21:33N 35°25' E 139°43'0 0.0
2016-May-21 20:32N 35°25' E 139°43'0 0.1
2016-May-21 19:33N 35°25' E 139°43'0 0.1
2016-May-21 18:33N 35°25' E 139°43'0 0.0
2016-May-21 17:32N 35°25' E 139°43'0 0.0
2016-May-21 16:33N 35°25' E 139°43'0 0.1
2016-May-21 15:33N 35°25' E 139°43'0 0.1
2016-May-21 14:33N 35°25' E 139°43'0 0.1
2016-May-21 13:33N 35°25' E 139°43'0 0.1
2016-May-21 12:33N 35°25' E 139°43'0 0.0
2016-May-21 11:32N 35°25' E 139°43'0 0.0
2016-May-21 10:32N 35°25' E 139°43'0 0.0
2016-May-21 09:33N 35°25' E 139°43'0 0.1
2016-May-21 08:33N 35°25' E 139°43'0 0.1
2016-May-21 07:33N 35°25' E 139°43'0 0.0
2016-May-21 06:33N 35°25' E 139°43'0 0.0
2016-May-21 05:33N 35°25' E 139°43'0 0.0
2016-May-21 04:33N 35°25' E 139°43'0 0.1
2016-May-21 03:33N 35°25' E 139°43'0 0.1
2016-May-21 02:33N 35°25' E 139°43'0 0.1
2016-May-21 01:33N 35°25' E 139°43'0 0.1
2016-May-21 00:33N 35°25' E 139°43'0 0.0
2016-May-20 23:32N 35°25' E 139°43'0 0.0
2016-May-20 22:33N 35°25' E 139°43'0 0.0
2016-May-20 21:32N 35°25' E 139°43'0 0.1
2016-May-20 20:33N 35°25' E 139°43'0 0.1
2016-May-20 19:33N 35°25' E 139°43'0 0.1
2016-May-20 18:32N 35°25' E 139°43'0 0.0
2016-May-20 17:33N 35°25' E 139°43'0 0.1
2016-May-20 16:33N 35°25' E 139°43'0 0.1
2016-May-20 15:33N 35°25' E 139°43'0 0.1
2016-May-20 14:33N 35°25' E 139°43'0 0.0
2016-May-20 13:33N 35°25' E 139°43'0 0.0
2016-May-20 12:33N 35°25' E 139°43'0 0.0
2016-May-20 11:33N 35°25' E 139°43'0 0.1
2016-May-20 10:33N 35°25' E 139°43'0 0.0
2016-May-20 09:33N 35°25' E 139°43'0 0.0
2016-May-20 08:33N 35°25' E 139°43'0 0.0
2016-May-20 07:33N 35°25' E 139°43'0 0.1
2016-May-20 06:34N 35°25' E 139°43'6 6.4
2016-May-20 05:34N 35°19' E 139°44'1110.8
2016-May-20 04:33N 35°08' E 139°46'1110.9
2016-May-20 03:34N 34°58' E 139°41'1410.7
2016-May-20 02:16N 34°52' E 139°56'1014.1
2016-May-20 01:33N 34°54' E 140°08'1413.5
2016-May-20 00:33N 35°01' E 140°23'1312.4
2016-May-19 23:32N 35°08' E 140°35'1311.9
2016-May-19 22:26N 35°17' E 140°47'1011.4
2016-May-19 21:32N 35°24' E 140°56'1312.8
2016-May-19 20:31N 35°35' E 141°06'1212.9
2016-May-19 19:33N 35°47' E 141°10'1413.7
2016-May-19 18:33N 36°00' E 141°11'1513.6
2016-May-19 17:29N 36°15' E 141°13'1313.6
2016-May-19 16:30N 36°28' E 141°14'1313.4
2016-May-19 15:30N 36°41' E 141°16'1313.8
2016-May-19 14:33N 36°54' E 141°17'2013.9
2016-May-19 13:06N 37°14' E 141°19'  

Dump ship's entire track history